Time;durP1;ratioP1;P1;durP2;ratioP2;P2;SDS_P1;SDS_P2;PMS_P1;PMS_P2;Temp;Humidity;BMP_temperature;BMP_pressure;BME280_temperature;BME280_humidity;BME280_pressure;Samples;Min_cycle;Max_cycle;Signal;HPM_P1;HPM_P2
2022/03/07 00:01:27;;;;;;;2.10;1.50;;;;;;;-3.05;63.32;98943.40;105000;1274;75792;-28
2022/03/07 00:03:58;;;;;;;2.00;1.50;;;;;;;-3.03;63.60;98938.77;104845;1271;72906;-28
2022/03/07 00:06:28;;;;;;;4.30;1.60;;;;;;;-3.03;63.26;98942.65;104788;1274;61109;-30
2022/03/07 00:08:59;;;;;;;3.00;1.90;;;;;;;-3.02;63.78;98943.15;104788;1274;61172;-28
2022/03/07 00:11:31;;;;;;;2.90;1.70;;;;;;;-3.02;63.62;98942.47;104835;1274;74078;-29
2022/03/07 00:14:21;;;;;;;2.80;1.80;;;;;;;-3.02;63.54;98939.41;104757;1274;73654;-30
2022/03/07 00:16:50;;;;;;;3.40;2.10;;;;;;;-3.03;63.71;98932.83;104796;1274;71641;-28
2022/03/07 00:19:20;;;;;;;3.70;1.60;;;;;;;-3.04;63.80;98929.27;104809;1274;61130;-30
2022/03/07 00:21:49;;;;;;;4.10;1.90;;;;;;;-3.04;63.63;98925.02;104795;1274;62663;-30
2022/03/07 00:24:19;;;;;;;4.00;1.50;;;;;;;-3.04;63.65;98921.29;104920;1272;72844;-30
2022/03/07 00:26:49;;;;;;;6.30;2.10;;;;;;;-3.03;63.97;98923.81;104957;1274;74831;-30
2022/03/07 00:29:38;;;;;;;3.80;1.70;;;;;;;-3.04;63.85;98914.14;104717;1274;72675;-28
2022/03/07 00:32:19;;;;;;;2.60;1.70;;;;;;;-3.05;63.92;98910.95;104708;1274;61148;-30
2022/03/07 00:34:48;;;;;;;2.20;1.50;;;;;;;-3.05;64.10;98907.73;104794;1271;61098;-30
2022/03/07 00:37:38;;;;;;;2.30;1.30;;;;;;;-3.05;63.63;98897.20;104711;1274;74224;-30
2022/03/07 00:40:10;;;;;;;5.80;2.30;;;;;;;-3.06;63.34;98890.75;104739;1274;74618;-30
2022/03/07 00:42:41;;;;;;;2.20;1.70;;;;;;;-3.05;63.64;98889.71;104853;1274;75543;-28
2022/03/07 00:45:11;;;;;;;6.20;1.80;;;;;;;-3.05;64.11;98889.89;104970;1274;61221;-30
2022/03/07 00:47:40;;;;;;;3.60;2.00;;;;;;;-3.05;64.11;98888.19;104799;1274;61167;-30
2022/03/07 00:50:11;;;;;;;2.20;1.60;;;;;;;-3.05;64.25;98886.33;104788;1274;74063;-30
2022/03/07 00:52:42;;;;;;;5.10;2.30;;;;;;;-3.05;64.36;98884.12;104736;1274;73046;-30
2022/03/07 00:55:13;;;;;;;2.60;1.70;;;;;;;-3.05;64.02;98882.23;104820;1274;72972;-30
2022/03/07 00:57:43;;;;;;;3.80;1.90;;;;;;;-3.05;64.26;98882.59;105156;1274;61113;-30
2022/03/07 01:00:15;;;;;;;3.00;2.00;;;;;;;-3.06;64.18;98879.04;105022;1272;61163;-30
2022/03/07 01:02:44;;;;;;;3.70;1.90;;;;;;;-3.06;64.02;98874.80;104758;1274;74043;-30
2022/03/07 01:05:16;;;;;;;4.00;2.10;;;;;;;-3.06;64.42;98872.23;104717;1274;73278;-30
2022/03/07 01:07:46;;;;;;;4.50;2.60;;;;;;;-3.06;64.31;98872.41;104768;1274;71658;-30
2022/03/07 01:10:18;;;;;;;3.20;2.00;;;;;;;-3.07;64.51;98866.66;104759;1274;61131;-31
2022/03/07 01:13:08;;;;;;;2.70;2.20;;;;;;;-3.05;64.72;98865.27;104724;1273;61242;-30
2022/03/07 01:15:37;;;;;;;2.00;1.70;;;;;;;-3.08;64.47;98860.24;104733;1274;72909;-30
2022/03/07 01:18:08;;;;;;;2.50;2.10;;;;;;;-3.06;64.64;98856.80;104768;1274;74881;-30
2022/03/07 01:20:40;;;;;;;3.90;2.20;;;;;;;-3.07;64.56;98852.91;104719;1274;72880;-29
2022/03/07 01:23:09;;;;;;;3.40;1.90;;;;;;;-3.07;64.44;98851.90;104742;1271;61012;-29
2022/03/07 01:25:40;;;;;;;5.70;2.40;;;;;;;-3.06;64.58;98849.83;104740;1274;61268;-29
2022/03/07 01:28:12;;;;;;;3.40;1.90;;;;;;;-3.06;64.85;98851.02;104735;1274;74010;-29
2022/03/07 01:30:41;;;;;;;3.00;2.10;;;;;;;-3.07;64.70;98848.15;104806;1272;72770;-29
2022/03/07 01:33:11;;;;;;;5.70;2.60;;;;;;;-3.06;64.61;98843.38;105133;1271;72982;-29
2022/03/07 01:35:41;;;;;;;4.30;2.40;;;;;;;-3.06;64.44;98841.00;105104;1271;61492;-29
2022/03/07 01:38:10;;;;;;;4.10;2.30;;;;;;;-3.06;64.65;98839.13;105134;1274;61107;-29
2022/03/07 01:40:42;;;;;;;4.30;2.20;;;;;;;-3.04;64.44;98836.86;105112;1274;73961;-29
2022/03/07 01:43:12;;;;;;;3.70;2.60;;;;;;;-3.03;64.64;98835.30;105064;1274;74560;-29
2022/03/07 01:45:41;;;;;;;4.60;2.40;;;;;;;-3.04;64.75;98835.16;104663;1274;71602;-29
2022/03/07 01:48:11;;;;;;;1.40;1.20;;;;;;;-3.02;65.19;98834.42;104791;1273;61032;-29
2022/03/07 01:50:40;;;;;;;3.50;2.00;;;;;;;-2.39;62.98;98829.95;104828;1274;61019;-30
2022/03/07 01:53:10;;;;;;;4.10;1.90;;;;;;;-1.55;60.73;98833.98;105124;1274;73030;-29
2022/03/07 01:55:40;;;;;;;6.10;2.40;;;;;;;-1.38;59.19;98832.88;104913;1274;74529;-29
2022/03/07 01:58:09;;;;;;;3.00;1.90;;;;;;;-1.45;59.73;98824.27;104792;1274;71839;-29
2022/03/07 02:00:40;;;;;;;3.90;2.10;;;;;;;-1.64;59.96;98825.63;104818;1274;61249;-29
2022/03/07 02:03:10;;;;;;;3.60;1.80;;;;;;;-1.82;59.95;98824.91;104938;1274;61148;-29
2022/03/07 02:05:43;;;;;;;3.10;2.00;;;;;;;-2.05;60.92;98825.46;104780;1274;74166;-29
2022/03/07 02:08:17;;;;;;;4.00;2.00;;;;;;;-2.19;61.71;98822.55;104729;1274;74518;-29
2022/03/07 02:10:53;;;;;;;2.50;1.70;;;;;;;-2.34;61.90;98820.46;104804;1274;72124;-29
2022/03/07 02:13:23;;;;;;;2.60;2.20;;;;;;;-2.45;62.36;98817.73;104801;1274;61047;-29
2022/03/07 02:16:05;;;;;;;4.60;2.40;;;;;;;-2.55;62.70;98814.16;105087;1273;61048;-29
2022/03/07 02:18:39;;;;;;;4.70;2.80;;;;;;;-2.64;63.28;98813.42;104922;1274;73128;-29
2022/03/07 02:21:28;;;;;;;3.20;1.70;;;;;;;-2.73;63.72;98810.64;104801;1274;74540;-28
2022/03/07 02:24:10;;;;;;;3.30;1.80;;;;;;;-2.78;64.20;98809.77;104730;1274;71543;-30
2022/03/07 02:26:41;;;;;;;3.70;2.30;;;;;;;-2.82;64.25;98809.90;104828;1274;61170;-29
2022/03/07 02:29:11;;;;;;;4.00;2.40;;;;;;;-2.88;64.30;98813.13;104847;1273;61084;-30
2022/03/07 02:31:44;;;;;;;2.50;1.80;;;;;;;-2.90;64.40;98811.14;104866;1274;74106;-29
2022/03/07 02:34:15;;;;;;;3.20;2.20;;;;;;;-2.92;64.40;98803.06;104739;1273;74733;-29
2022/03/07 02:36:44;;;;;;;2.10;1.50;;;;;;;-2.95;64.34;98798.70;104831;1274;71674;-29
2022/03/07 02:39:14;;;;;;;4.30;2.10;;;;;;;-2.95;64.71;98801.95;104900;1274;61090;-31
2022/03/07 02:41:43;;;;;;;6.50;3.20;;;;;;;-2.95;65.04;98802.13;104922;1271;61166;-32
2022/03/07 02:44:13;;;;;;;5.50;2.80;;;;;;;-2.97;65.02;98800.82;104948;1272;73927;-30
2022/03/07 02:46:44;;;;;;;4.20;2.70;;;;;;;-3.00;65.40;98795.98;104793;1274;74515;-30
2022/03/07 02:49:14;;;;;;;4.20;3.00;;;;;;;-3.00;65.80;98795.98;104759;1274;73167;-28
2022/03/07 02:51:47;;;;;;;4.40;3.00;;;;;;;-3.00;65.77;98794.27;104588;1274;61149;-28
2022/03/07 02:54:17;;;;;;;2.10;1.30;;;;;;;-3.03;66.31;98793.67;104825;1271;61045;-28
2022/03/07 02:56:47;;;;;;;4.50;3.10;;;;;;;-3.02;66.36;98790.44;104964;1271;74131;-28
2022/03/07 02:59:16;;;;;;;6.00;3.30;;;;;;;-2.90;66.49;98790.27;104782;1271;74530;-28
2022/03/07 03:01:49;;;;;;;4.00;2.70;;;;;;;-2.07;64.60;98792.88;104784;1271;73079;-28
2022/03/07 03:04:18;;;;;;;2.90;2.00;;;;;;;-1.52;62.53;98788.42;104848;1274;61166;-29
2022/03/07 03:06:50;;;;;;;4.00;2.50;;;;;;;-1.52;62.61;98786.73;104785;1274;61102;-28
2022/03/07 03:09:20;;;;;;;6.90;2.70;;;;;;;-1.62;62.57;98784.20;104941;1272;74375;-28
2022/03/07 03:11:51;;;;;;;5.50;3.00;;;;;;;-1.88;63.44;98782.56;104759;1272;74583;-28
2022/03/07 03:14:21;;;;;;;5.90;3.70;;;;;;;-2.01;63.94;98782.27;104869;1271;70741;-29
2022/03/07 03:16:53;;;;;;;3.60;2.40;;;;;;;-2.14;64.52;98778.15;104800;1273;61131;-29
2022/03/07 03:19:22;;;;;;;5.50;2.70;;;;;;;-2.27;64.99;98777.91;104931;1272;61233;-28
2022/03/07 03:21:54;;;;;;;8.40;1.80;;;;;;;-2.37;65.27;98779.42;104846;1274;74131;-28
2022/03/07 03:24:24;;;;;;;6.90;3.40;;;;;;;-2.56;65.70;98769.98;104818;1274;74411;-28
2022/03/07 03:26:56;;;;;;;5.10;4.10;;;;;;;-2.59;66.13;98764.31;104817;1274;72833;-28
2022/03/07 03:29:25;;;;;;;5.70;3.30;;;;;;;-2.68;66.74;98763.06;104835;1271;61127;-28
2022/03/07 03:31:57;;;;;;;7.00;3.60;;;;;;;-2.73;67.31;98761.86;105061;1274;61064;-29
2022/03/07 03:34:26;;;;;;;6.40;4.10;;;;;;;-2.76;67.60;98761.79;105108;1271;74119;-28
2022/03/07 03:36:59;;;;;;;6.50;3.80;;;;;;;-2.83;68.00;98759.44;104820;1274;74230;-29
2022/03/07 03:39:28;;;;;;;5.40;3.70;;;;;;;-2.85;68.24;98754.05;104822;1271;73104;-28
2022/03/07 03:41:59;;;;;;;10.50;3.40;;;;;;;-2.59;68.09;98755.83;104833;1271;61394;-28
2022/03/07 03:44:29;;;;;;;4.60;3.10;;;;;;;-1.81;65.55;98757.45;104797;1271;61169;-28
2022/03/07 03:46:58;;;;;;;5.20;3.70;;;;;;;-1.53;64.10;98756.45;104791;1274;72117;-29
2022/03/07 03:49:29;;;;;;;4.20;2.90;;;;;;;-1.70;64.70;98755.68;104831;1274;74603;-29
2022/03/07 03:51:59;;;;;;;8.00;3.10;;;;;;;-1.76;64.82;98752.70;104758;1272;71311;-29
2022/03/07 03:54:28;;;;;;;6.10;3.10;;;;;;;-1.95;65.47;98748.58;104808;1271;61161;-28
2022/03/07 03:56:58;;;;;;;6.00;3.90;;;;;;;-2.06;66.24;98749.14;104786;1274;61157;-29
2022/03/07 03:59:27;;;;;;;7.40;5.10;;;;;;;-2.25;67.12;98746.88;104777;1274;73097;-28
2022/03/07 04:01:57;;;;;;;8.80;4.10;;;;;;;-2.45;67.82;98740.23;104740;1274;73247;-28
2022/03/07 04:04:27;;;;;;;5.10;3.80;;;;;;;-2.49;68.08;98740.55;104789;1274;72119;-30
2022/03/07 04:06:57;;;;;;;9.00;6.10;;;;;;;-2.62;68.75;98736.51;104843;1271;61039;-28
2022/03/07 04:09:31;;;;;;;8.70;4.30;;;;;;;-2.66;68.85;98733.77;104805;1274;61148;-29
2022/03/07 04:12:01;;;;;;;6.90;4.20;;;;;;;-2.74;69.32;98735.91;104701;1271;72830;-28
2022/03/07 04:14:30;;;;;;;6.80;3.50;;;;;;;-2.72;69.55;98729.21;105059;1274;72078;-28
2022/03/07 04:17:00;;;;;;;3.70;2.00;;;;;;;-2.14;68.24;98734.27;104940;1274;72627;-28
2022/03/07 04:19:30;;;;;;;6.40;4.30;;;;;;;-1.63;66.13;98731.62;104861;1274;61258;-29
2022/03/07 04:22:00;;;;;;;8.30;4.40;;;;;;;-1.53;65.60;98728.86;104788;1274;61142;-28
2022/03/07 04:24:30;;;;;;;5.60;3.90;;;;;;;-1.70;66.06;98724.70;104772;1274;73938;-29
2022/03/07 04:26:59;;;;;;;5.70;4.30;;;;;;;-1.86;66.57;98720.86;104768;1272;74394;-30
2022/03/07 04:29:29;;;;;;;6.10;3.80;;;;;;;-2.14;67.51;98718.79;104799;1273;73174;-30
2022/03/07 04:31:58;;;;;;;10.80;6.90;;;;;;;-2.26;68.20;98719.70;104816;1274;61115;-29
2022/03/07 04:34:29;;;;;;;8.00;4.40;;;;;;;-2.38;68.58;98715.67;104809;1274;61042;-31
2022/03/07 04:36:59;;;;;;;6.80;4.60;;;;;;;-2.44;68.61;98711.98;104747;1274;75515;-29
2022/03/07 04:39:28;;;;;;;3.40;2.90;;;;;;;-2.53;69.05;98709.39;104863;1271;74298;-28
2022/03/07 04:41:58;;;;;;;6.70;4.20;;;;;;;-2.64;69.56;98714.83;104834;1273;71719;-29
2022/03/07 04:44:27;;;;;;;7.20;4.90;;;;;;;-2.68;69.79;98708.70;104777;1271;61137;-29
2022/03/07 04:46:57;;;;;;;6.70;4.10;;;;;;;-2.72;69.97;98711.21;104822;1271;61085;-28
2022/03/07 04:49:27;;;;;;;4.90;3.40;;;;;;;-2.19;68.97;98711.30;104803;1274;73938;-28
2022/03/07 04:51:56;;;;;;;7.60;3.90;;;;;;;-1.71;66.76;98707.90;104830;1271;74681;-29
2022/03/07 04:54:25;;;;;;;8.60;5.70;;;;;;;-1.67;66.02;98707.59;104876;1271;72962;-29
2022/03/07 04:56:56;;;;;;;6.10;4.60;;;;;;;-1.75;66.57;98711.09;104855;1274;61127;-29
2022/03/07 04:59:26;;;;;;;15.20;4.80;;;;;;;-1.98;67.15;98704.95;105083;1273;61010;-28
2022/03/07 05:01:56;;;;;;;10.00;5.20;;;;;;;-2.07;67.74;98707.98;104939;1274;73909;-28
2022/03/07 05:04:26;;;;;;;13.20;7.60;;;;;;;-2.40;68.70;98707.77;104819;1271;74279;-28
2022/03/07 05:06:57;;;;;;;8.40;5.70;;;;;;;-2.49;69.48;98699.74;105043;1273;72984;-28
2022/03/07 05:09:28;;;;;;;11.00;6.30;;;;;;;-2.57;69.24;98697.80;104805;1274;61182;-29
2022/03/07 05:11:58;;;;;;;8.80;5.50;;;;;;;-2.67;70.05;98697.45;104787;1274;61054;-28
2022/03/07 05:14:28;;;;;;;11.50;7.60;;;;;;;-2.67;69.71;98695.40;104725;1274;71864;-28
2022/03/07 05:16:58;;;;;;;12.50;6.70;;;;;;;-2.74;70.33;98696.48;104754;1273;73189;-28
2022/03/07 05:19:28;;;;;;;7.60;4.50;;;;;;;-2.28;69.22;98702.76;104816;1274;71623;-28
2022/03/07 05:21:58;;;;;;;11.30;7.20;;;;;;;-1.75;67.48;98698.67;104807;1273;61170;-28
2022/03/07 05:24:27;;;;;;;10.60;6.60;;;;;;;-1.74;66.87;98698.48;104838;1274;61134;-28
2022/03/07 05:26:56;;;;;;;12.10;7.30;;;;;;;-1.93;67.17;98698.33;104832;1271;74518;-29
2022/03/07 05:29:26;;;;;;;10.40;6.50;;;;;;;-1.94;67.33;98692.72;104817;1271;74364;-29
2022/03/07 05:31:55;;;;;;;7.70;5.50;;;;;;;-2.27;67.94;98692.86;104835;1272;72985;-29
2022/03/07 05:34:26;;;;;;;7.80;4.80;;;;;;;-2.28;68.18;98689.85;104772;1274;61096;-28
2022/03/07 05:36:56;;;;;;;13.10;7.30;;;;;;;-2.41;68.69;98687.20;104783;1271;61025;-28
2022/03/07 05:39:25;;;;;;;9.10;6.20;;;;;;;-2.60;68.84;98684.96;104765;1271;74304;-28
2022/03/07 05:41:55;;;;;;;11.30;6.50;;;;;;;-2.72;69.53;98680.61;104825;1274;73433;-28
2022/03/07 05:44:25;;;;;;;13.80;7.70;;;;;;;-2.69;70.25;98688.66;105053;1273;71592;-28
2022/03/07 05:46:54;;;;;;;8.00;5.60;;;;;;;-2.58;69.85;98686.11;105066;1274;61586;-29
2022/03/07 05:49:24;;;;;;;8.80;6.50;;;;;;;-2.08;67.68;98680.83;104873;1274;61003;-28
2022/03/07 05:51:54;;;;;;;9.10;6.20;;;;;;;-1.80;66.81;98684.92;104831;1274;72745;-29
2022/03/07 05:54:23;;;;;;;8.60;4.70;;;;;;;-1.98;67.05;98685.55;104924;1272;74262;-28
2022/03/07 05:56:53;;;;;;;11.30;6.30;;;;;;;-1.94;67.38;98686.61;104880;1273;72992;-28
2022/03/07 05:59:23;;;;;;;12.30;7.40;;;;;;;-2.15;67.73;98688.03;104819;1274;61018;-29
2022/03/07 06:01:54;;;;;;;11.50;6.40;;;;;;;-2.24;68.25;98684.77;104811;1274;61130;-29
2022/03/07 06:04:24;;;;;;;9.20;6.20;;;;;;;-2.38;69.00;98685.24;104828;1272;72777;-28
2022/03/07 06:06:59;;;;;;;12.00;6.90;;;;;;;-2.41;68.94;98689.43;104802;1274;74655;-28
2022/03/07 06:09:29;;;;;;;8.60;5.10;;;;;;;-2.52;69.35;98687.09;104793;1274;72783;-29
2022/03/07 06:12:00;;;;;;;10.80;5.90;;;;;;;-2.55;69.04;98676.45;104786;1272;61033;-28
2022/03/07 06:14:30;;;;;;;12.80;7.90;;;;;;;-2.64;69.12;98678.64;104995;1274;61233;-28
2022/03/07 06:17:01;;;;;;;8.80;5.70;;;;;;;-2.56;69.57;98682.43;104781;1274;72720;-29
2022/03/07 06:19:31;;;;;;;8.70;5.80;;;;;;;-2.18;67.82;98682.17;104802;1274;73231;-29
2022/03/07 06:22:01;;;;;;;6.60;4.80;;;;;;;-1.63;66.68;98684.81;104828;1274;72593;-28
2022/03/07 06:24:32;;;;;;;9.30;5.80;;;;;;;-1.55;65.74;98683.16;104468;1271;469792;-29
2022/03/07 06:27:02;;;;;;;10.40;5.70;;;;;;;-1.58;65.97;98684.79;104797;1274;61455;-29
2022/03/07 06:29:32;;;;;;;5.90;4.40;;;;;;;-1.81;66.91;98683.95;104618;1274;72760;-31
2022/03/07 06:32:02;;;;;;;7.90;5.50;;;;;;;-1.97;66.96;98681.60;104843;1272;75002;-30
2022/03/07 06:34:33;;;;;;;9.40;5.90;;;;;;;-2.17;67.45;98682.48;104803;1274;71405;-30
2022/03/07 06:37:04;;;;;;;8.40;6.20;;;;;;;-2.35;68.45;98684.13;104814;1274;61006;-30
2022/03/07 06:39:34;;;;;;;10.00;6.00;;;;;;;-2.38;68.37;98676.56;105012;1274;60969;-30
2022/03/07 06:42:05;;;;;;;10.00;5.70;;;;;;;-2.49;68.55;98677.13;104838;1274;73714;-29
2022/03/07 06:44:39;;;;;;;8.30;5.30;;;;;;;-2.51;68.69;98680.25;104628;1274;73339;-31
2022/03/07 06:47:10;;;;;;;8.30;4.70;;;;;;;-2.52;69.52;98682.82;104712;1274;73214;-30
2022/03/07 06:49:42;;;;;;;6.90;5.00;;;;;;;-2.52;69.47;98680.10;104774;1272;61063;-29
2022/03/07 06:52:12;;;;;;;7.20;5.30;;;;;;;-1.85;68.03;98687.30;104960;1274;61104;-29
2022/03/07 06:54:43;;;;;;;8.20;5.30;;;;;;;-1.52;66.30;98688.14;105141;1274;74148;-28
2022/03/07 06:57:13;;;;;;;7.90;5.20;;;;;;;-1.66;66.68;98683.54;104954;1273;73291;-29
2022/03/07 06:59:43;;;;;;;9.50;4.70;;;;;;;-1.73;66.86;98686.69;104748;1274;71805;-41
2022/03/07 07:02:14;;;;;;;8.80;5.30;;;;;;;-1.83;67.46;98688.10;105127;1274;61156;-29
2022/03/07 07:04:47;;;;;;;10.00;4.80;;;;;;;-1.88;68.19;98684.86;104873;1274;61201;-28
2022/03/07 07:07:20;;;;;;;10.70;5.20;;;;;;;-1.86;68.26;98690.25;104784;1274;74073;-29
2022/03/07 07:10:00;;;;;;;7.10;4.80;;;;;;;-2.08;67.77;98688.11;104817;1273;74992;-30
2022/03/07 07:12:39;;;;;;;10.10;4.90;;;;;;;-2.12;68.01;98687.42;104733;1274;72919;-29
2022/03/07 07:15:11;;;;;;;8.90;5.20;;;;;;;-2.04;68.06;98682.54;104881;1274;61163;-29
2022/03/07 07:17:45;;;;;;;7.50;4.40;;;;;;;-2.11;67.73;98684.81;105155;1274;61044;-30
2022/03/07 07:20:16;;;;;;;8.60;4.70;;;;;;;-2.12;66.30;98680.77;105077;1271;73956;-30
2022/03/07 07:22:46;;;;;;;6.60;3.90;;;;;;;-2.08;66.51;98677.95;104879;1272;74384;-29
2022/03/07 07:25:22;;;;;;;5.30;3.70;;;;;;;-2.06;65.79;98680.91;104788;1271;72938;-28
2022/03/07 07:27:51;;;;;;;6.30;4.10;;;;;;;-2.11;65.69;98683.30;104801;1271;61034;-28
2022/03/07 07:30:22;;;;;;;9.00;3.70;;;;;;;-2.11;65.03;98683.33;104831;1274;61198;-28
2022/03/07 07:32:54;;;;;;;7.30;4.30;;;;;;;-2.09;65.42;98682.55;104753;1273;72765;-29
2022/03/07 07:35:26;;;;;;;8.20;4.50;;;;;;;-2.30;65.56;98677.99;104744;1274;74600;-30
2022/03/07 07:37:57;;;;;;;6.50;4.00;;;;;;;-2.24;66.02;98681.86;104767;1274;71552;-28
2022/03/07 07:40:30;;;;;;;6.70;3.30;;;;;;;-2.24;65.19;98681.71;105040;1274;61119;-28
2022/03/07 07:43:05;;;;;;;6.00;3.60;;;;;;;-2.22;65.34;98684.54;105041;1273;61089;-28
2022/03/07 07:45:38;;;;;;;7.40;4.80;;;;;;;-2.08;64.54;98684.89;104802;1274;74194;-29
2022/03/07 07:48:20;;;;;;;5.90;3.80;;;;;;;-2.17;64.27;98679.27;104757;1271;73029;-28
2022/03/07 07:50:55;;;;;;;7.50;4.40;;;;;;;-2.33;64.40;98680.65;105073;1271;72826;-28
2022/03/07 07:53:27;;;;;;;5.60;3.40;;;;;;;-2.34;63.57;98675.26;104898;1274;61048;-28
2022/03/07 07:55:58;;;;;;;4.90;3.30;;;;;;;-2.32;63.40;98671.26;104884;1272;60945;-30
2022/03/07 07:58:28;;;;;;;5.30;3.30;;;;;;;-2.20;63.65;98674.61;104857;1271;74066;-29
2022/03/07 08:00:59;;;;;;;10.90;4.30;;;;;;;-2.11;63.05;98673.41;105089;1271;74722;-30
2022/03/07 08:03:29;;;;;;;4.10;2.70;;;;;;;-2.14;64.20;98676.77;104826;1273;72620;-32
2022/03/07 08:05:59;;;;;;;8.80;4.40;;;;;;;-2.01;63.74;98674.45;104835;1274;61054;-31
2022/03/07 08:08:29;;;;;;;5.80;3.70;;;;;;;-2.03;62.10;98664.66;104817;1274;61052;-29
2022/03/07 08:10:58;;;;;;;3.70;2.80;;;;;;;-2.10;62.03;98670.17;104860;1271;74138;-29
2022/03/07 08:13:28;;;;;;;6.50;3.10;;;;;;;-2.10;62.19;98675.62;104799;1274;74531;-29
2022/03/07 08:15:58;;;;;;;8.20;4.10;;;;;;;-2.04;62.63;98670.80;104836;1274;72169;-29
2022/03/07 08:18:27;;;;;;;8.40;4.50;;;;;;;-1.98;62.62;98672.79;104881;1274;61163;-31
2022/03/07 08:21:00;;;;;;;4.50;2.90;;;;;;;-1.88;62.25;98664.77;104990;1272;61077;-31
2022/03/07 08:23:29;;;;;;;6.10;4.30;;;;;;;-2.02;59.85;98660.17;104878;1271;74119;-28
2022/03/07 08:25:59;;;;;;;5.80;3.60;;;;;;;-2.12;60.16;98661.71;104836;1274;74597;-28
2022/03/07 08:28:29;;;;;;;6.70;3.20;;;;;;;-2.06;60.90;98663.05;104814;1274;74269;-28
2022/03/07 08:30:59;;;;;;;3.70;2.70;;;;;;;-1.87;60.19;98662.05;104831;1271;61153;-28
2022/03/07 08:33:31;;;;;;;6.40;3.70;;;;;;;-1.71;60.73;98664.83;104813;1274;61130;-28
2022/03/07 08:36:01;;;;;;;7.90;4.00;;;;;;;-1.78;60.46;98661.17;104831;1274;74129;-28
2022/03/07 08:38:31;;;;;;;5.00;3.20;;;;;;;-1.70;60.23;98657.69;104868;1274;74599;-28
2022/03/07 08:41:02;;;;;;;4.70;2.70;;;;;;;-1.74;59.22;98650.64;104779;1274;73070;-28
2022/03/07 08:43:31;;;;;;;5.50;3.80;;;;;;;-1.67;59.76;98653.82;104823;1274;61055;-28
2022/03/07 08:46:01;;;;;;;5.20;3.20;;;;;;;-1.63;59.37;98648.56;104814;1274;61161;-28
2022/03/07 08:48:33;;;;;;;4.90;3.40;;;;;;;-1.65;59.13;98644.89;104803;1274;72727;-28
2022/03/07 08:51:02;;;;;;;4.50;2.90;;;;;;;-1.71;58.73;98638.80;104672;1274;74521;-28
2022/03/07 08:53:32;;;;;;;6.70;3.90;;;;;;;-1.70;59.26;98647.44;104828;1274;72986;-28
2022/03/07 08:56:01;;;;;;;6.90;4.00;;;;;;;-1.68;59.70;98648.05;104825;1273;61205;-28
2022/03/07 08:58:51;;;;;;;7.70;3.40;;;;;;;-1.50;59.72;98646.34;104859;1274;61136;-28
2022/03/07 09:01:20;;;;;;;5.40;3.10;;;;;;;-1.50;58.96;98646.34;104935;1274;74088;-28
2022/03/07 09:03:50;;;;;;;9.10;3.20;;;;;;;-1.34;58.32;98641.15;105022;1274;74758;-28
2022/03/07 09:06:20;;;;;;;6.50;4.10;;;;;;;-1.09;58.78;98647.50;104934;1274;73203;-28
2022/03/07 09:08:49;;;;;;;6.20;2.80;;;;;;;-1.03;56.64;98637.70;105140;1273;61107;-29
2022/03/07 09:11:24;;;;;;;5.00;2.90;;;;;;;-1.06;56.67;98636.48;104968;1274;61103;-28
2022/03/07 09:13:54;;;;;;;6.00;3.80;;;;;;;-1.17;56.16;98636.56;104791;1274;73988;-28
2022/03/07 09:16:47;;;;;;;4.60;3.00;;;;;;;-1.04;57.50;98633.16;104869;1272;73232;-28
2022/03/07 09:19:19;;;;;;;5.80;3.50;;;;;;;-0.91;55.26;98621.38;104840;1274;72710;-28
2022/03/07 09:21:49;;;;;;;6.60;3.10;;;;;;;-1.02;55.52;98622.34;104832;1274;61161;-28
2022/03/07 09:24:20;;;;;;;4.20;2.30;;;;;;;-1.11;54.46;98628.46;104794;1274;61173;-28
2022/03/07 09:26:49;;;;;;;5.70;2.90;;;;;;;-1.19;54.12;98626.57;104726;1274;72916;-28
2022/03/07 09:29:20;;;;;;;3.00;2.20;;;;;;;-1.38;54.81;98632.63;104891;1274;74527;-28
2022/03/07 09:31:50;;;;;;;5.00;2.30;;;;;;;-1.27;55.38;98640.00;105037;1272;72998;-28
2022/03/07 09:34:19;;;;;;;2.80;2.00;;;;;;;-1.26;55.32;98636.06;105116;1274;61154;-29
2022/03/07 09:36:49;;;;;;;8.00;2.80;;;;;;;-1.35;55.29;98622.30;105148;1274;61163;-29
2022/03/07 09:39:20;;;;;;;6.00;2.70;;;;;;;-1.56;55.33;98628.20;104825;1274;74130;-29
2022/03/07 09:41:51;;;;;;;2.80;1.80;;;;;;;-1.54;55.22;98634.41;105085;1274;73326;-29
2022/03/07 09:44:21;;;;;;;3.90;2.90;;;;;;;-1.49;55.25;98637.30;104829;1271;71517;-29
2022/03/07 09:46:51;;;;;;;8.60;3.40;;;;;;;-1.51;54.82;98635.84;104801;1274;61123;-29
2022/03/07 09:49:20;;;;;;;4.00;2.30;;;;;;;-1.41;56.51;98636.45;104922;1274;61090;-28
2022/03/07 09:51:52;;;;;;;3.80;2.80;;;;;;;-1.29;56.92;98636.36;105128;1274;73078;-29
2022/03/07 09:54:23;;;;;;;5.70;2.90;;;;;;;-1.41;56.93;98632.05;104668;1274;74629;-29
2022/03/07 09:56:54;;;;;;;4.20;3.30;;;;;;;-1.42;57.05;98633.13;104717;1274;71656;-29
2022/03/07 09:59:24;;;;;;;6.50;2.90;;;;;;;-1.50;56.48;98621.14;104844;1272;61161;-28
2022/03/07 10:02:04;;;;;;;4.70;2.60;;;;;;;-1.48;56.01;98626.17;105168;1274;61115;-28
2022/03/07 10:04:39;;;;;;;3.80;2.20;;;;;;;-1.48;56.00;98622.96;104883;1274;74011;-28
2022/03/07 10:07:10;;;;;;;4.60;2.00;;;;;;;-1.60;55.34;98628.36;104804;1274;74733;-30
2022/03/07 10:09:41;;;;;;;2.60;1.70;;;;;;;-1.57;56.50;98627.38;104777;1273;71971;-28
2022/03/07 10:12:11;;;;;;;2.10;1.20;;;;;;;-1.56;55.28;98626.34;104845;1274;61167;-28
2022/03/07 10:15:13;;;;;;;5.10;2.50;;;;;;;-1.60;55.44;98621.88;104782;1271;61003;-28
2022/03/07 10:17:50;;;;;;;3.60;2.40;;;;;;;-1.56;55.55;98625.30;105119;1274;73943;-28
2022/03/07 10:20:21;;;;;;;3.70;1.90;;;;;;;-1.52;56.11;98616.98;104770;1274;74428;-28
2022/03/07 10:22:53;;;;;;;3.60;1.90;;;;;;;-1.54;56.50;98623.87;104627;1274;72776;-28
2022/03/07 10:25:30;;;;;;;4.40;2.10;;;;;;;-1.61;55.82;98612.39;104719;1274;61122;-28
2022/03/07 10:28:01;;;;;;;5.50;1.90;;;;;;;-1.59;56.54;98617.75;104733;1274;61163;-29
2022/03/07 10:30:32;;;;;;;2.70;1.80;;;;;;;-1.59;56.78;98621.15;104642;1274;72766;-28
2022/03/07 10:33:10;;;;;;;3.20;2.00;;;;;;;-1.69;56.13;98613.02;104673;1274;72351;-28
2022/03/07 10:35:49;;;;;;;3.30;1.90;;;;;;;-1.70;55.91;98615.94;104713;1274;72987;-28
2022/03/07 10:38:21;;;;;;;2.60;1.40;;;;;;;-1.67;56.05;98614.99;104651;1274;61130;-29
2022/03/07 10:40:53;;;;;;;4.80;2.00;;;;;;;-1.60;56.34;98614.04;104859;1274;61048;-28
2022/03/07 10:43:24;;;;;;;5.80;2.70;;;;;;;-1.53;56.47;98612.94;104795;1274;73891;-28
2022/03/07 10:46:00;;;;;;;3.60;1.90;;;;;;;-1.48;56.63;98599.45;104943;1274;74749;-28
2022/03/07 10:48:39;;;;;;;1.50;1.30;;;;;;;-1.37;56.81;98608.06;104745;1274;72942;-28
2022/03/07 10:51:16;;;;;;;2.80;2.10;;;;;;;-1.41;56.17;98603.11;104747;1274;61320;-28
2022/03/07 10:53:46;;;;;;;5.30;3.20;;;;;;;-1.53;58.30;98605.11;104747;1274;61058;-30
2022/03/07 10:56:17;;;;;;;5.20;3.10;;;;;;;-1.49;59.78;98601.18;104889;1274;75828;-28
2022/03/07 10:58:52;;;;;;;3.60;2.70;;;;;;;-1.58;59.77;98595.09;105022;1274;74415;-28
2022/03/07 11:01:34;;;;;;;7.90;2.90;;;;;;;-1.65;60.28;98589.52;104710;1274;72907;-28
2022/03/07 11:04:04;;;;;;;4.90;3.10;;;;;;;-1.71;60.27;98592.86;104687;1274;61089;-28
2022/03/07 11:06:34;;;;;;;3.50;2.80;;;;;;;-1.69;60.51;98594.11;104788;1271;61160;-28
2022/03/07 11:09:07;;;;;;;3.00;2.40;;;;;;;-1.72;60.55;98593.91;104699;1274;74053;-28
2022/03/07 11:11:43;;;;;;;6.20;3.30;;;;;;;-1.70;60.68;98583.09;104762;1271;74635;-30
2022/03/07 11:14:15;;;;;;;6.20;3.20;;;;;;;-1.70;61.18;98599.94;104766;1274;71814;-29
2022/03/07 11:16:46;;;;;;;6.30;3.50;;;;;;;-1.78;60.91;98584.61;104797;1271;61154;-29
2022/03/07 11:19:19;;;;;;;5.20;3.10;;;;;;;-1.83;61.37;98593.32;104668;1272;61222;-29
2022/03/07 11:21:51;;;;;;;5.90;3.70;;;;;;;-1.70;61.70;98599.09;104804;1274;72848;-28
2022/03/07 11:24:22;;;;;;;7.00;4.00;;;;;;;-1.66;62.13;98609.16;104695;1274;73093;-29
2022/03/07 11:26:54;;;;;;;6.80;3.20;;;;;;;-1.71;62.28;98608.14;104681;1274;71838;-28
2022/03/07 11:29:37;;;;;;;7.60;3.40;;;;;;;-1.67;62.96;98593.73;104664;1274;61074;-29
2022/03/07 11:32:11;;;;;;;6.40;3.40;;;;;;;-1.61;63.66;98599.77;104703;1274;61747;-29
2022/03/07 11:34:53;;;;;;;7.10;4.40;;;;;;;-1.59;63.31;98601.06;104658;1274;74126;-29
2022/03/07 11:37:28;;;;;;;6.70;3.50;;;;;;;-1.47;63.68;98599.27;104764;1274;74391;-29
2022/03/07 11:40:00;;;;;;;5.60;3.20;;;;;;;-1.46;63.11;98590.02;104819;1274;72854;-29
2022/03/07 11:42:36;;;;;;;6.40;3.00;;;;;;;-1.39;62.69;98580.02;104609;1274;61160;-29
2022/03/07 11:45:09;;;;;;;5.00;2.90;;;;;;;-1.52;62.98;98583.44;104725;1274;61192;-28